createdAt,value
2023-05-03T00:01:38.200Z,5.63
2023-05-03T00:04:05.111Z,6.00
2023-05-03T00:06:31.997Z,6.20
2023-05-03T00:08:58.733Z,6.35
2023-05-03T00:11:26.035Z,5.70
2023-05-03T00:13:52.725Z,5.97
2023-05-03T00:16:20.638Z,5.80
2023-05-03T00:18:49.069Z,6.40
2023-05-03T00:21:16.646Z,6.30
2023-05-03T00:23:43.299Z,6.38
2023-05-03T00:26:09.967Z,6.38
2023-05-03T00:28:36.617Z,6.28
2023-05-03T00:31:11.320Z,6.38
2023-05-03T00:33:38.802Z,7.28
2023-05-03T00:36:14.409Z,6.32
2023-05-03T00:38:42.231Z,6.65
2023-05-03T00:41:10.875Z,7.13
2023-05-03T00:43:37.937Z,7.57
2023-05-03T00:46:15.991Z,6.53
2023-05-03T00:48:46.594Z,6.30
2023-05-03T00:51:15.055Z,7.38
2023-05-03T00:53:42.707Z,7.32
2023-05-03T00:56:09.938Z,6.85
2023-05-03T00:58:39.963Z,6.97
2023-05-03T01:01:08.026Z,7.72
2023-05-03T01:03:37.718Z,6.88
2023-05-03T01:06:33.079Z,7.03
2023-05-03T01:09:03.213Z,6.90
2023-05-03T01:11:41.798Z,6.63
2023-05-03T01:14:28.685Z,7.20
2023-05-03T01:17:02.850Z,7.07
2023-05-03T01:19:35.688Z,6.43
2023-05-03T01:22:11.169Z,7.30
2023-05-03T01:24:40.315Z,6.40
2023-05-03T01:27:07.043Z,6.38
2023-05-03T01:29:33.823Z,6.68
2023-05-03T01:32:03.894Z,6.38
2023-05-03T01:34:49.891Z,6.90
2023-05-03T01:37:17.251Z,6.95
2023-05-03T01:39:53.199Z,7.18
2023-05-03T01:42:24.019Z,7.22
2023-05-03T01:44:50.905Z,6.13
2023-05-03T01:47:17.651Z,6.35
2023-05-03T01:49:44.352Z,6.32
2023-05-03T01:52:11.172Z,7.65
2023-05-03T01:54:37.899Z,6.85
2023-05-03T01:57:05.203Z,7.25
2023-05-03T01:59:31.918Z,7.75
2023-05-03T02:01:58.602Z,7.45
2023-05-03T02:04:25.337Z,7.95
2023-05-03T02:06:52.158Z,7.60
2023-05-03T02:09:19.019Z,6.97
2023-05-03T02:11:45.846Z,6.43
2023-05-03T02:14:12.581Z,6.57
2023-05-03T02:16:40.025Z,7.22
2023-05-03T02:19:07.868Z,8.93
2023-05-03T02:21:36.796Z,8.90
2023-05-03T02:24:03.825Z,8.40
2023-05-03T02:26:30.468Z,7.55
2023-05-03T02:28:58.104Z,7.97
2023-05-03T02:31:25.362Z,7.97
2023-05-03T02:33:52.100Z,10.03
2023-05-03T02:36:18.800Z,9.60
2023-05-03T02:38:45.416Z,9.70
2023-05-03T02:41:12.140Z,9.57
2023-05-03T02:43:38.828Z,9.55
2023-05-03T02:46:05.938Z,9.38
2023-05-03T02:48:32.684Z,9.25
2023-05-03T02:50:59.392Z,10.20
2023-05-03T02:53:26.108Z,9.25
2023-05-03T02:55:52.770Z,9.35
2023-05-03T02:58:19.490Z,8.82
2023-05-03T03:00:46.322Z,9.15
2023-05-03T03:03:13.060Z,9.13
2023-05-03T03:05:39.777Z,8.83
2023-05-03T03:08:06.738Z,9.00
2023-05-03T03:10:33.480Z,8.98
2023-05-03T03:13:00.186Z,8.60
2023-05-03T03:15:26.917Z,8.75
2023-05-03T03:17:57.716Z,8.25
2023-05-03T03:20:24.671Z,8.23
2023-05-03T03:22:51.473Z,8.10
2023-05-03T03:25:18.186Z,7.55
2023-05-03T03:27:44.809Z,7.35
2023-05-03T03:30:11.855Z,8.00
2023-05-03T03:32:38.625Z,8.57
2023-05-03T03:35:05.724Z,7.90
2023-05-03T03:37:32.394Z,8.55
2023-05-03T03:39:59.051Z,8.10
2023-05-03T03:42:25.900Z,8.00
2023-05-03T03:44:52.569Z,8.55
2023-05-03T03:47:19.361Z,8.23
2023-05-03T03:49:46.148Z,8.37
2023-05-03T03:52:12.901Z,8.75
2023-05-03T03:54:39.626Z,8.20
2023-05-03T03:57:06.400Z,8.57
2023-05-03T03:59:33.003Z,8.10
2023-05-03T04:01:59.941Z,7.80
2023-05-03T04:04:26.826Z,8.45
2023-05-03T04:06:53.612Z,8.07
2023-05-03T04:09:21.448Z,8.50
2023-05-03T04:11:48.174Z,7.88
2023-05-03T04:14:14.837Z,7.20
2023-05-03T04:16:41.530Z,6.80
2023-05-03T04:19:08.267Z,7.32
2023-05-03T04:21:35.064Z,7.13
2023-05-03T04:24:04.663Z,7.38
2023-05-03T04:26:32.437Z,7.28
2023-05-03T04:28:59.836Z,7.30
2023-05-03T04:31:26.962Z,6.75
2023-05-03T04:33:53.540Z,7.35
2023-05-03T04:36:22.689Z,7.40
2023-05-03T04:38:49.312Z,7.23
2023-05-03T04:41:17.270Z,6.80
2023-05-03T04:43:43.923Z,6.78
2023-05-03T04:46:10.780Z,7.55
2023-05-03T04:48:37.413Z,7.07
2023-05-03T04:51:04.646Z,7.30
2023-05-03T04:53:31.396Z,8.15
2023-05-03T04:55:58.062Z,8.10
2023-05-03T04:58:24.820Z,9.20
2023-05-03T05:00:51.584Z,9.40
2023-05-03T05:03:18.320Z,10.43
2023-05-03T05:05:45.017Z,10.30
2023-05-03T05:08:11.978Z,10.48
2023-05-03T05:10:41.480Z,10.32
2023-05-03T05:13:08.212Z,9.20
2023-05-03T05:15:39.459Z,8.60
2023-05-03T05:18:06.315Z,8.10
2023-05-03T05:20:33.072Z,7.80
2023-05-03T05:22:59.726Z,7.95
2023-05-03T05:25:27.235Z,7.38
2023-05-03T05:27:53.930Z,7.80
2023-05-03T05:30:20.760Z,7.77
2023-05-03T05:32:47.546Z,7.28
2023-05-03T05:35:17.577Z,7.40
2023-05-03T05:37:44.318Z,7.47
2023-05-03T05:40:12.404Z,7.32
2023-05-03T05:42:39.182Z,7.55
2023-05-03T05:45:07.832Z,7.70
2023-05-03T05:47:34.533Z,7.83
2023-05-03T05:50:01.452Z,7.78
2023-05-03T05:52:28.265Z,7.90
2023-05-03T05:54:55.332Z,7.63
2023-05-03T05:57:22.012Z,7.30
2023-05-03T05:59:48.659Z,8.40
2023-05-03T06:02:16.958Z,7.88
2023-05-03T06:04:44.655Z,8.02
2023-05-03T06:07:11.396Z,8.90
2023-05-03T06:09:38.137Z,7.93
2023-05-03T06:12:04.900Z,7.93
2023-05-03T06:14:31.550Z,8.43
2023-05-03T06:16:59.862Z,8.40
2023-05-03T06:19:26.534Z,7.90
2023-05-03T06:21:53.211Z,8.67
2023-05-03T06:24:21.263Z,8.35
2023-05-03T06:26:48.496Z,8.30
2023-05-03T06:29:15.236Z,8.13
2023-05-03T06:31:42.085Z,8.30
2023-05-03T06:34:10.507Z,8.27
2023-05-03T06:36:37.815Z,8.13
2023-05-03T06:39:04.672Z,7.95
2023-05-03T06:41:33.958Z,8.00
2023-05-03T06:44:00.638Z,7.73
2023-05-03T06:46:28.449Z,8.07
2023-05-03T06:48:57.466Z,7.32
2023-05-03T06:51:28.097Z,7.57
2023-05-03T06:53:56.248Z,8.35
2023-05-03T06:56:23.662Z,8.02
2023-05-03T06:58:50.610Z,7.72
2023-05-03T07:01:19.114Z,8.40
2023-05-03T07:03:47.131Z,7.75
2023-05-03T07:06:14.036Z,7.80
2023-05-03T07:08:40.797Z,7.70
2023-05-03T07:11:07.508Z,7.53
2023-05-03T07:13:34.202Z,7.38
2023-05-03T07:16:03.409Z,7.17
2023-05-03T07:18:30.498Z,7.93
2023-05-03T07:20:57.258Z,7.28
2023-05-03T07:23:23.997Z,7.70
2023-05-03T07:25:50.636Z,7.40
2023-05-03T07:28:17.350Z,7.47
2023-05-03T07:30:44.112Z,7.75
2023-05-03T07:33:10.983Z,7.15
2023-05-03T07:35:37.786Z,7.30
2023-05-03T07:38:04.478Z,7.28
2023-05-03T07:40:33.288Z,7.32
2023-05-03T07:43:00.508Z,6.32
2023-05-03T07:45:27.552Z,6.85
2023-05-03T07:47:56.500Z,6.90
2023-05-03T07:50:23.262Z,7.05
2023-05-03T07:52:51.757Z,6.63
2023-05-03T07:55:20.011Z,6.68
2023-05-03T07:57:46.714Z,6.57
2023-05-03T08:00:14.318Z,6.43
2023-05-03T08:02:41.539Z,6.00
2023-05-03T08:05:09.747Z,6.20
2023-05-03T08:07:37.023Z,6.30
2023-05-03T08:10:04.509Z,5.97
2023-05-03T08:12:31.331Z,6.40
2023-05-03T08:14:58.050Z,5.60
2023-05-03T08:17:24.777Z,5.60
2023-05-03T08:19:52.210Z,5.78
2023-05-03T08:22:18.871Z,5.80
2023-05-03T08:24:45.660Z,5.65
2023-05-03T08:27:12.792Z,5.37
2023-05-03T08:29:39.505Z,5.80
2023-05-03T08:32:06.275Z,5.78
2023-05-03T08:34:33.143Z,5.28
2023-05-03T08:36:59.956Z,6.72
2023-05-03T08:39:26.858Z,5.07
2023-05-03T08:41:54.797Z,5.30
2023-05-03T08:44:23.212Z,4.97
2023-05-03T08:46:50.347Z,4.90
2023-05-03T08:49:18.362Z,5.47
2023-05-03T08:51:49.748Z,5.13
2023-05-03T08:54:20.530Z,5.13
2023-05-03T08:56:47.763Z,5.00
2023-05-03T08:59:17.053Z,5.10
2023-05-03T09:01:43.758Z,5.10
2023-05-03T09:04:11.796Z,5.00
2023-05-03T09:06:38.993Z,4.90
2023-05-03T09:09:08.062Z,4.63
2023-05-03T09:11:36.666Z,4.97
2023-05-03T09:14:15.413Z,4.35
2023-05-03T09:16:44.634Z,4.75
2023-05-03T09:19:13.538Z,5.50
2023-05-03T09:21:41.694Z,5.47
2023-05-03T09:24:17.492Z,4.80
2023-05-03T09:26:45.577Z,4.93
2023-05-03T09:29:28.996Z,5.53
2023-05-03T09:32:05.765Z,4.50
2023-05-03T09:34:33.584Z,4.60
2023-05-03T09:37:00.288Z,5.20
2023-05-03T09:39:27.528Z,5.00
2023-05-03T09:41:54.472Z,4.18
2023-05-03T09:44:41.374Z,3.90
2023-05-03T09:47:08.384Z,3.55
2023-05-03T09:49:44.528Z,3.88
2023-05-03T09:52:11.369Z,3.67
2023-05-03T09:54:38.787Z,3.05
2023-05-03T09:57:07.444Z,3.50
2023-05-03T09:59:35.349Z,3.88
2023-05-03T10:02:05.948Z,3.50
2023-05-03T10:04:43.588Z,3.85
2023-05-03T10:07:14.610Z,4.43
2023-05-03T10:09:46.655Z,4.10
2023-05-03T10:12:17.036Z,3.40
2023-05-03T10:14:45.779Z,3.60
2023-05-03T10:17:16.634Z,3.63
2023-05-03T10:20:06.967Z,3.95
2023-05-03T10:23:04.333Z,3.20
2023-05-03T10:25:32.953Z,3.65
2023-05-03T10:28:03.933Z,3.63
2023-05-03T10:30:32.401Z,3.30
2023-05-03T10:33:19.889Z,3.58
2023-05-03T10:35:53.078Z,3.33
2023-05-03T10:38:26.089Z,3.40
2023-05-03T10:40:55.031Z,3.00
2023-05-03T10:43:37.382Z,2.95
2023-05-03T10:46:06.496Z,2.83
2023-05-03T10:48:43.547Z,3.25
2023-05-03T10:51:33.118Z,3.00
2023-05-03T10:53:59.996Z,3.90
2023-05-03T10:56:26.722Z,3.45
2023-05-03T10:58:56.805Z,3.55
2023-05-03T11:01:25.173Z,4.05
2023-05-03T11:04:26.354Z,3.80
2023-05-03T11:06:56.753Z,3.90
2023-05-03T11:09:32.460Z,3.40
2023-05-03T11:11:59.528Z,3.45
2023-05-03T11:14:26.421Z,3.80
2023-05-03T11:16:57.210Z,4.40
2023-05-03T11:19:24.939Z,3.17
2023-05-03T11:21:52.168Z,3.20
2023-05-03T11:24:19.030Z,3.60
2023-05-03T11:26:45.919Z,3.30
2023-05-03T11:29:14.618Z,3.78
2023-05-03T11:31:43.192Z,3.20
2023-05-03T11:34:11.518Z,3.22
2023-05-03T11:36:38.254Z,3.50
2023-05-03T11:39:05.799Z,3.53
2023-05-03T11:41:32.790Z,3.10
2023-05-03T11:44:14.522Z,3.72
2023-05-03T11:46:42.813Z,3.58
2023-05-03T11:49:10.152Z,3.80
2023-05-03T11:51:37.110Z,4.03
2023-05-03T11:54:16.936Z,3.80
2023-05-03T11:56:52.786Z,3.20
2023-05-03T11:59:20.036Z,3.90
2023-05-03T12:01:49.451Z,3.60
2023-05-03T12:04:17.296Z,3.40
2023-05-03T12:06:52.835Z,3.70
2023-05-03T12:09:22.265Z,4.07
2023-05-03T12:14:17.466Z,3.73
2023-05-03T12:16:53.755Z,3.55
2023-05-03T12:19:25.967Z,2.90
2023-05-03T12:22:09.493Z,3.20
2023-05-03T12:24:40.026Z,3.38
2023-05-03T12:27:08.629Z,3.63
2023-05-03T12:29:35.950Z,3.60
2023-05-03T12:32:03.820Z,3.50
2023-05-03T12:34:33.823Z,3.33
2023-05-03T12:37:04.985Z,3.63
2023-05-03T12:39:32.976Z,3.10
2023-05-03T12:44:34.930Z,2.88
2023-05-03T12:47:02.965Z,3.30
2023-05-03T12:49:30.136Z,3.35
2023-05-03T12:52:18.707Z,2.88
2023-05-03T12:54:49.283Z,3.10
2023-05-03T12:57:22.983Z,2.97
2023-05-03T12:59:52.581Z,3.20
2023-05-03T13:04:58.513Z,4.10
2023-05-03T13:07:29.501Z,3.08
2023-05-03T13:12:27.588Z,3.63
2023-05-03T13:14:56.121Z,3.05
2023-05-03T13:17:23.402Z,3.38
2023-05-03T13:19:52.264Z,3.10
2023-05-03T13:22:19.310Z,3.30
2023-05-03T13:24:47.864Z,3.27
2023-05-03T13:27:15.747Z,3.10
2023-05-03T13:29:42.592Z,2.92
2023-05-03T13:32:09.712Z,3.15
2023-05-03T13:34:39.546Z,2.88
2023-05-03T13:37:06.425Z,2.50
2023-05-03T13:39:33.223Z,2.88
2023-05-03T13:42:00.196Z,2.40
2023-05-03T13:44:26.963Z,2.55
2023-05-03T13:46:53.928Z,2.97
2023-05-03T13:49:21.110Z,3.20
2023-05-03T13:51:47.993Z,2.20
2023-05-03T13:54:14.671Z,2.80
2023-05-03T13:56:43.064Z,2.65
2023-05-03T13:59:12.355Z,2.45
2023-05-03T14:01:39.673Z,2.53
2023-05-03T14:04:06.620Z,2.58
2023-05-03T14:06:34.006Z,3.25
2023-05-03T14:09:01.623Z,3.08
2023-05-03T14:11:29.769Z,3.00
2023-05-03T14:13:57.756Z,2.63
2023-05-03T14:16:39.966Z,2.90
2023-05-03T14:19:10.077Z,2.30
2023-05-03T14:21:37.414Z,3.03
2023-05-03T14:24:04.431Z,2.67
2023-05-03T14:26:33.165Z,3.00
2023-05-03T14:28:59.884Z,3.10
2023-05-03T14:31:26.624Z,2.67
2023-05-03T14:33:53.581Z,2.72
2023-05-03T14:36:20.294Z,2.70
2023-05-03T14:38:47.696Z,2.70
2023-05-03T14:41:14.360Z,2.73
2023-05-03T14:43:41.029Z,2.42
2023-05-03T14:46:09.763Z,2.33
2023-05-03T14:48:38.138Z,2.33
2023-05-03T14:51:05.501Z,2.67
2023-05-03T14:53:32.449Z,2.58
2023-05-03T14:55:59.387Z,2.70
2023-05-03T14:58:26.135Z,1.80
2023-05-03T15:00:52.920Z,2.60
2023-05-03T15:03:19.747Z,2.22
2023-05-03T15:05:48.289Z,2.38
2023-05-03T15:08:17.543Z,2.47
2023-05-03T15:10:44.998Z,2.08
2023-05-03T15:13:12.722Z,2.10
2023-05-03T15:15:43.529Z,2.47
2023-05-03T15:18:10.915Z,2.20
2023-05-03T15:20:38.672Z,2.30
2023-05-03T15:23:06.125Z,2.08
2023-05-03T15:25:33.016Z,1.92
2023-05-03T15:28:03.878Z,1.55
2023-05-03T15:30:32.088Z,1.80
2023-05-03T15:32:58.991Z,1.80
2023-05-03T15:35:26.003Z,1.60
2023-05-03T15:37:52.791Z,1.70
2023-05-03T15:40:22.368Z,1.90
2023-05-03T15:42:50.465Z,1.45
2023-05-03T15:45:19.005Z,1.50
2023-05-03T15:47:46.171Z,1.85
2023-05-03T15:50:13.010Z,1.52
2023-05-03T15:52:39.789Z,1.75
2023-05-03T15:55:08.367Z,1.70
2023-05-03T15:57:35.633Z,1.50
2023-05-03T16:00:06.345Z,1.52
2023-05-03T16:02:33.328Z,1.60
2023-05-03T16:05:00.075Z,1.80
2023-05-03T16:07:26.889Z,1.70
2023-05-03T22:45:13.137Z,3.40
2023-05-03T22:47:39.898Z,3.90
2023-05-03T22:50:07.647Z,4.07
2023-05-03T22:52:34.314Z,3.80
2023-05-03T22:55:01.346Z,3.90
2023-05-03T22:57:28.174Z,4.28
2023-05-03T22:59:55.285Z,4.40
2023-05-03T23:02:22.184Z,3.80
2023-05-03T23:04:48.983Z,3.53
2023-05-03T23:07:15.757Z,3.75
2023-05-03T23:09:42.395Z,3.60
2023-05-03T23:12:09.087Z,3.95
2023-05-03T23:14:36.383Z,4.20
2023-05-03T23:17:05.901Z,3.60
2023-05-03T23:19:33.823Z,3.58
2023-05-03T23:22:00.480Z,4.28
2023-05-03T23:24:27.267Z,4.20
2023-05-03T23:26:54.054Z,4.10
2023-05-03T23:29:21.130Z,3.75
2023-05-03T23:31:48.214Z,4.20
2023-05-03T23:34:15.433Z,4.43
2023-05-03T23:36:42.159Z,4.43
2023-05-03T23:39:08.839Z,4.50
2023-05-03T23:41:36.288Z,4.00
2023-05-03T23:44:03.690Z,4.50
2023-05-03T23:46:30.421Z,4.67
2023-05-03T23:48:57.110Z,4.75
2023-05-03T23:51:23.880Z,4.05
2023-05-03T23:53:53.644Z,4.53
2023-05-03T23:56:20.685Z,4.60
2023-05-03T23:58:47.342Z,4.00
